sensor_id;sensor_type;location;lat;lon;timestamp;pressure;altitude;pressure_sealevel;temperature;humidity
33155;BME280;19511;42.682;23.332;2022-11-20T00:01:18;94436.25;;;15.23;100.00
33155;BME280;19511;42.682;23.332;2022-11-20T00:03:43;94420.41;;;15.60;100.00
33155;BME280;19511;42.682;23.332;2022-11-20T00:06:15;94434.78;;;16.18;100.00
33155;BME280;19511;42.682;23.332;2022-11-20T00:08:41;94327.19;;;16.36;100.00
33155;BME280;19511;42.682;23.332;2022-11-20T00:11:09;94422.13;;;16.88;100.00
33155;BME280;19511;42.682;23.332;2022-11-20T00:13:35;94328.94;;;15.96;100.00
33155;BME280;19511;42.682;23.332;2022-11-20T00:16:02;94446.81;;;16.80;100.00
33155;BME280;19511;42.682;23.332;2022-11-20T00:18:28;94466.06;;;16.59;100.00
33155;BME280;19511;42.682;23.332;2022-11-20T00:21:09;94436.81;;;16.18;100.00
33155;BME280;19511;42.682;23.332;2022-11-20T00:23:35;94402.78;;;16.65;100.00
33155;BME280;19511;42.682;23.332;2022-11-20T00:26:02;94362.44;;;16.67;100.00
33155;BME280;19511;42.682;23.332;2022-11-20T00:28:28;94393.66;;;17.17;100.00
33155;BME280;19511;42.682;23.332;2022-11-20T00:31:07;94418.25;;;16.76;100.00
33155;BME280;19511;42.682;23.332;2022-11-20T00:33:33;94335.00;;;16.04;100.00
33155;BME280;19511;42.682;23.332;2022-11-20T00:36:04;94384.75;;;17.28;100.00
33155;BME280;19511;42.682;23.332;2022-11-20T00:38:31;94409.31;;;17.57;100.00
33155;BME280;19511;42.682;23.332;2022-11-20T00:40:57;94409.25;;;17.67;100.00
33155;BME280;19511;42.682;23.332;2022-11-20T00:43:24;94394.25;;;17.79;100.00
33155;BME280;19511;42.682;23.332;2022-11-20T00:45:49;94410.91;;;17.98;100.00
33155;BME280;19511;42.682;23.332;2022-11-20T00:48:15;94417.53;;;18.09;100.00
33155;BME280;19511;42.682;23.332;2022-11-20T00:50:41;94390.44;;;18.31;100.00
33155;BME280;19511;42.682;23.332;2022-11-20T00:53:06;94360.69;;;18.03;100.00
33155;BME280;19511;42.682;23.332;2022-11-20T00:55:32;94393.41;;;18.12;100.00
33155;BME280;19511;42.682;23.332;2022-11-20T00:57:57;94434.53;;;18.75;100.00
33155;BME280;19511;42.682;23.332;2022-11-20T01:00:23;94431.91;;;18.71;100.00
33155;BME280;19511;42.682;23.332;2022-11-20T01:02:48;94390.59;;;18.81;100.00
33155;BME280;19511;42.682;23.332;2022-11-20T01:05:13;94371.28;;;18.83;100.00
33155;BME280;19511;42.682;23.332;2022-11-20T01:07:39;94429.72;;;18.75;100.00
33155;BME280;19511;42.682;23.332;2022-11-20T01:10:05;94408.56;;;18.74;100.00
33155;BME280;19511;42.682;23.332;2022-11-20T01:12:30;94396.88;;;18.76;100.00
33155;BME280;19511;42.682;23.332;2022-11-20T01:14:56;94383.28;;;18.99;100.00
33155;BME280;19511;42.682;23.332;2022-11-20T01:17:21;94399.09;;;18.87;100.00
33155;BME280;19511;42.682;23.332;2022-11-20T01:19:49;94415.13;;;18.86;100.00
33155;BME280;19511;42.682;23.332;2022-11-20T01:22:15;94306.59;;;18.36;100.00
33155;BME280;19511;42.682;23.332;2022-11-20T01:24:40;94374.66;;;19.02;100.00
33155;BME280;19511;42.682;23.332;2022-11-20T01:27:06;94376.91;;;18.98;100.00
33155;BME280;19511;42.682;23.332;2022-11-20T01:29:31;94353.13;;;18.93;100.00
33155;BME280;19511;42.682;23.332;2022-11-20T01:31:56;94377.19;;;19.00;100.00
33155;BME280;19511;42.682;23.332;2022-11-20T01:34:22;94325.03;;;18.73;100.00
33155;BME280;19511;42.682;23.332;2022-11-20T01:36:49;94349.81;;;18.80;100.00
33155;BME280;19511;42.682;23.332;2022-11-20T01:39:20;94292.09;;;18.38;100.00
33155;BME280;19511;42.682;23.332;2022-11-20T01:41:47;94368.38;;;18.63;100.00
33155;BME280;19511;42.682;23.332;2022-11-20T01:44:57;94320.66;;;18.42;100.00
33155;BME280;19511;42.682;23.332;2022-11-20T01:47:35;94365.28;;;18.60;100.00
33155;BME280;19511;42.682;23.332;2022-11-20T01:50:14;94359.28;;;18.38;100.00
33155;BME280;19511;42.682;23.332;2022-11-20T01:52:54;94388.91;;;18.30;100.00
33155;BME280;19511;42.682;23.332;2022-11-20T01:55:25;94352.94;;;18.37;100.00
33155;BME280;19511;42.682;23.332;2022-11-20T01:57:51;94333.59;;;18.24;100.00
33155;BME280;19511;42.682;23.332;2022-11-20T02:00:18;94279.84;;;17.81;100.00
33155;BME280;19511;42.682;23.332;2022-11-20T02:02:48;94352.72;;;18.41;100.00
33155;BME280;19511;42.682;23.332;2022-11-20T02:08:03;94357.19;;;18.48;100.00
33155;BME280;19511;42.682;23.332;2022-11-20T02:10:29;94348.59;;;18.51;100.00
33155;BME280;19511;42.682;23.332;2022-11-20T02:12:55;94350.41;;;18.39;100.00
33155;BME280;19511;42.682;23.332;2022-11-20T02:15:40;94350.38;;;18.24;100.00
33155;BME280;19511;42.682;23.332;2022-11-20T02:18:06;94367.34;;;18.06;100.00
33155;BME280;19511;42.682;23.332;2022-11-20T02:20:32;94357.03;;;18.12;100.00
33155;BME280;19511;42.682;23.332;2022-11-20T02:23:15;94370.19;;;18.21;100.00
33155;BME280;19511;42.682;23.332;2022-11-20T02:25:42;94373.84;;;18.12;100.00
33155;BME280;19511;42.682;23.332;2022-11-20T02:28:09;94356.91;;;18.06;100.00
33155;BME280;19511;42.682;23.332;2022-11-20T02:30:35;94376.91;;;17.90;100.00
33155;BME280;19511;42.682;23.332;2022-11-20T02:33:00;94365.66;;;17.75;100.00
33155;BME280;19511;42.682;23.332;2022-11-20T02:37:54;94281.50;;;17.73;100.00
33155;BME280;19511;42.682;23.332;2022-11-20T02:40:20;94367.47;;;18.26;100.00
33155;BME280;19511;42.682;23.332;2022-11-20T02:42:45;94369.69;;;18.22;100.00
33155;BME280;19511;42.682;23.332;2022-11-20T02:45:11;94351.59;;;18.48;100.00
33155;BME280;19511;42.682;23.332;2022-11-20T02:47:37;94309.75;;;17.99;100.00
33155;BME280;19511;42.682;23.332;2022-11-20T02:50:03;94390.56;;;18.36;100.00
33155;BME280;19511;42.682;23.332;2022-11-20T02:52:29;94379.75;;;18.44;100.00
33155;BME280;19511;42.682;23.332;2022-11-20T02:54:55;94375.13;;;18.41;100.00
33155;BME280;19511;42.682;23.332;2022-11-20T02:57:21;94365.34;;;18.21;100.00
33155;BME280;19511;42.682;23.332;2022-11-20T02:59:46;94408.78;;;18.32;100.00
33155;BME280;19511;42.682;23.332;2022-11-20T03:02:11;94387.44;;;18.19;100.00
33155;BME280;19511;42.682;23.332;2022-11-20T03:04:37;94402.91;;;18.30;100.00
33155;BME280;19511;42.682;23.332;2022-11-20T03:07:03;94370.03;;;18.00;100.00
33155;BME280;19511;42.682;23.332;2022-11-20T03:09:29;94314.59;;;17.50;100.00
33155;BME280;19511;42.682;23.332;2022-11-20T03:11:54;94426.63;;;18.19;100.00
33155;BME280;19511;42.682;23.332;2022-11-20T03:14:19;94420.84;;;18.23;100.00
33155;BME280;19511;42.682;23.332;2022-11-20T03:16:45;94261.25;;;17.14;100.00
33155;BME280;19511;42.682;23.332;2022-11-20T03:19:11;94409.47;;;18.26;100.00
33155;BME280;19511;42.682;23.332;2022-11-20T03:21:37;94405.19;;;18.16;100.00
33155;BME280;19511;42.682;23.332;2022-11-20T03:24:02;94425.09;;;18.18;100.00
33155;BME280;19511;42.682;23.332;2022-11-20T03:26:28;94399.72;;;17.98;100.00
33155;BME280;19511;42.682;23.332;2022-11-20T03:28:59;94435.22;;;18.16;100.00
33155;BME280;19511;42.682;23.332;2022-11-20T03:31:28;94421.34;;;17.97;100.00
33155;BME280;19511;42.682;23.332;2022-11-20T03:33:54;94446.78;;;18.08;100.00
33155;BME280;19511;42.682;23.332;2022-11-20T03:36:20;94342.53;;;17.50;100.00
33155;BME280;19511;42.682;23.332;2022-11-20T03:38:45;94435.84;;;17.86;100.00
33155;BME280;19511;42.682;23.332;2022-11-20T03:41:17;94452.38;;;18.08;100.00
33155;BME280;19511;42.682;23.332;2022-11-20T03:43:47;94446.41;;;18.16;100.00
33155;BME280;19511;42.682;23.332;2022-11-20T03:46:13;94361.28;;;17.35;100.00
33155;BME280;19511;42.682;23.332;2022-11-20T03:48:38;94426.09;;;17.48;100.00
33155;BME280;19511;42.682;23.332;2022-11-20T03:51:21;94442.97;;;17.63;100.00
33155;BME280;19511;42.682;23.332;2022-11-20T03:53:48;94447.75;;;17.72;100.00
33155;BME280;19511;42.682;23.332;2022-11-20T03:56:15;94444.59;;;17.79;100.00
33155;BME280;19511;42.682;23.332;2022-11-20T03:58:41;94395.06;;;17.46;100.00
33155;BME280;19511;42.682;23.332;2022-11-20T04:01:10;94446.78;;;17.75;100.00
33155;BME280;19511;42.682;23.332;2022-11-20T04:03:37;94436.66;;;17.77;100.00
33155;BME280;19511;42.682;23.332;2022-11-20T04:06:10;94441.16;;;17.84;100.00
33155;BME280;19511;42.682;23.332;2022-11-20T04:08:36;94449.81;;;17.95;100.00
33155;BME280;19511;42.682;23.332;2022-11-20T04:13:38;94441.75;;;18.13;100.00
33155;BME280;19511;42.682;23.332;2022-11-20T04:16:05;94431.22;;;17.83;100.00
33155;BME280;19511;42.682;23.332;2022-11-20T04:18:31;94365.72;;;17.41;100.00
33155;BME280;19511;42.682;23.332;2022-11-20T04:20:58;94425.13;;;17.60;100.00
33155;BME280;19511;42.682;23.332;2022-11-20T04:23:24;94375.81;;;17.14;100.00
33155;BME280;19511;42.682;23.332;2022-11-20T04:25:49;94380.84;;;17.35;100.00
33155;BME280;19511;42.682;23.332;2022-11-20T04:28:16;94435.13;;;17.76;100.00
33155;BME280;19511;42.682;23.332;2022-11-20T04:30:42;94370.66;;;17.22;100.00
33155;BME280;19511;42.682;23.332;2022-11-20T04:33:07;94435.94;;;17.43;100.00
33155;BME280;19511;42.682;23.332;2022-11-20T04:35:36;94381.13;;;17.03;100.00
33155;BME280;19511;42.682;23.332;2022-11-20T04:38:03;94437.78;;;17.46;100.00
33155;BME280;19511;42.682;23.332;2022-11-20T04:40:29;94401.94;;;17.02;100.00
33155;BME280;19511;42.682;23.332;2022-11-20T04:42:55;94420.00;;;17.25;100.00
33155;BME280;19511;42.682;23.332;2022-11-20T04:45:22;94384.41;;;17.02;100.00
33155;BME280;19511;42.682;23.332;2022-11-20T04:47:47;94448.63;;;17.44;100.00
33155;BME280;19511;42.682;23.332;2022-11-20T04:50:13;94434.16;;;17.55;100.00
33155;BME280;19511;42.682;23.332;2022-11-20T04:52:38;94432.91;;;17.56;100.00
33155;BME280;19511;42.682;23.332;2022-11-20T04:55:04;94352.13;;;17.01;100.00
33155;BME280;19511;42.682;23.332;2022-11-20T04:57:30;94366.41;;;16.93;100.00
33155;BME280;19511;42.682;23.332;2022-11-20T04:59:55;94424.34;;;17.26;100.00
33155;BME280;19511;42.682;23.332;2022-11-20T05:02:21;94433.59;;;17.42;100.00
33155;BME280;19511;42.682;23.332;2022-11-20T05:04:47;94381.19;;;17.27;100.00
33155;BME280;19511;42.682;23.332;2022-11-20T05:07:12;94351.06;;;16.98;100.00
33155;BME280;19511;42.682;23.332;2022-11-20T05:09:38;94347.19;;;16.95;100.00
33155;BME280;19511;42.682;23.332;2022-11-20T05:12:03;94432.50;;;17.39;100.00
33155;BME280;19511;42.682;23.332;2022-11-20T05:14:29;94424.47;;;17.66;100.00
33155;BME280;19511;42.682;23.332;2022-11-20T05:16:54;94390.00;;;17.59;100.00
33155;BME280;19511;42.682;23.332;2022-11-20T05:19:20;94408.47;;;17.66;100.00
33155;BME280;19511;42.682;23.332;2022-11-20T05:21:46;94411.91;;;17.61;100.00
33155;BME280;19511;42.682;23.332;2022-11-20T05:24:11;94411.38;;;17.48;100.00
33155;BME280;19511;42.682;23.332;2022-11-20T05:26:37;94402.44;;;17.58;100.00
33155;BME280;19511;42.682;23.332;2022-11-20T05:29:02;94390.13;;;17.41;100.00
33155;BME280;19511;42.682;23.332;2022-11-20T05:31:28;94397.22;;;17.51;100.00
33155;BME280;19511;42.682;23.332;2022-11-20T05:33:54;94404.97;;;17.47;100.00
33155;BME280;19511;42.682;23.332;2022-11-20T05:36:20;94403.75;;;17.48;100.00
33155;BME280;19511;42.682;23.332;2022-11-20T05:38:45;94422.25;;;17.45;100.00
33155;BME280;19511;42.682;23.332;2022-11-20T05:41:13;94387.47;;;17.13;100.00
33155;BME280;19511;42.682;23.332;2022-11-20T05:43:40;94410.19;;;17.30;100.00
33155;BME280;19511;42.682;23.332;2022-11-20T05:46:07;94418.53;;;17.06;100.00
33155;BME280;19511;42.682;23.332;2022-11-20T05:48:34;94330.88;;;16.51;100.00
33155;BME280;19511;42.682;23.332;2022-11-20T05:51:01;94439.38;;;16.95;100.00
33155;BME280;19511;42.682;23.332;2022-11-20T05:53:27;94436.56;;;16.86;100.00
33155;BME280;19511;42.682;23.332;2022-11-20T05:56:00;94418.44;;;16.72;100.00
33155;BME280;19511;42.682;23.332;2022-11-20T05:58:26;94417.69;;;16.62;100.00
33155;BME280;19511;42.682;23.332;2022-11-20T06:00:51;94425.13;;;16.56;100.00
33155;BME280;19511;42.682;23.332;2022-11-20T06:03:17;94414.31;;;16.40;100.00
33155;BME280;19511;42.682;23.332;2022-11-20T06:05:42;94424.69;;;16.48;100.00
33155;BME280;19511;42.682;23.332;2022-11-20T06:08:08;94418.78;;;16.65;100.00
33155;BME280;19511;42.682;23.332;2022-11-20T06:10:33;94427.31;;;16.61;100.00
33155;BME280;19511;42.682;23.332;2022-11-20T06:12:58;94405.94;;;16.40;100.00
33155;BME280;19511;42.682;23.332;2022-11-20T06:15:24;94366.25;;;16.17;100.00
33155;BME280;19511;42.682;23.332;2022-11-20T06:17:57;94441.56;;;16.73;100.00
33155;BME280;19511;42.682;23.332;2022-11-20T06:20:24;94423.56;;;16.74;100.00
33155;BME280;19511;42.682;23.332;2022-11-20T06:22:49;94411.91;;;16.75;100.00
33155;BME280;19511;42.682;23.332;2022-11-20T06:25:16;94346.91;;;16.23;100.00
33155;BME280;19511;42.682;23.332;2022-11-20T06:27:41;94416.16;;;16.52;100.00
33155;BME280;19511;42.682;23.332;2022-11-20T06:30:11;94440.00;;;16.72;100.00
33155;BME280;19511;42.682;23.332;2022-11-20T06:32:36;94352.63;;;16.19;100.00
33155;BME280;19511;42.682;23.332;2022-11-20T06:35:02;94441.56;;;16.73;100.00
33155;BME280;19511;42.682;23.332;2022-11-20T06:37:28;94421.53;;;16.74;100.00
33155;BME280;19511;42.682;23.332;2022-11-20T06:39:53;94433.16;;;16.82;100.00
33155;BME280;19511;42.682;23.332;2022-11-20T06:42:18;94435.81;;;16.76;100.00
33155;BME280;19511;42.682;23.332;2022-11-20T06:44:44;94454.25;;;16.83;100.00
33155;BME280;19511;42.682;23.332;2022-11-20T06:47:09;94430.38;;;16.73;100.00
33155;BME280;19511;42.682;23.332;2022-11-20T06:49:35;94386.69;;;16.51;100.00
33155;BME280;19511;42.682;23.332;2022-11-20T06:52:02;94382.81;;;16.48;100.00
33155;BME280;19511;42.682;23.332;2022-11-20T06:54:27;94443.06;;;16.92;100.00
33155;BME280;19511;42.682;23.332;2022-11-20T06:56:53;94466.16;;;17.11;100.00
33155;BME280;19511;42.682;23.332;2022-11-20T06:59:18;94382.31;;;16.59;100.00
33155;BME280;19511;42.682;23.332;2022-11-20T07:01:44;94444.91;;;17.05;100.00
33155;BME280;19511;42.682;23.332;2022-11-20T07:04:09;94473.13;;;17.16;100.00
33155;BME280;19511;42.682;23.332;2022-11-20T07:06:34;94488.34;;;17.15;100.00
33155;BME280;19511;42.682;23.332;2022-11-20T07:09:00;94466.34;;;16.98;100.00
33155;BME280;19511;42.682;23.332;2022-11-20T07:11:26;94480.47;;;17.04;100.00
33155;BME280;19511;42.682;23.332;2022-11-20T07:13:52;94471.28;;;17.04;100.00
33155;BME280;19511;42.682;23.332;2022-11-20T07:16:17;94406.69;;;16.59;100.00
33155;BME280;19511;42.682;23.332;2022-11-20T07:18:43;94453.31;;;16.95;100.00
33155;BME280;19511;42.682;23.332;2022-11-20T07:21:10;94404.03;;;16.55;100.00
33155;BME280;19511;42.682;23.332;2022-11-20T07:23:36;94386.19;;;16.62;100.00
33155;BME280;19511;42.682;23.332;2022-11-20T07:26:06;94479.69;;;17.13;100.00
33155;BME280;19511;42.682;23.332;2022-11-20T07:28:32;94388.81;;;16.65;100.00
33155;BME280;19511;42.682;23.332;2022-11-20T07:30:58;94476.56;;;17.11;100.00
33155;BME280;19511;42.682;23.332;2022-11-20T07:33:23;94485.50;;;17.34;100.00
33155;BME280;19511;42.682;23.332;2022-11-20T07:35:49;94390.81;;;16.74;100.00
33155;BME280;19511;42.682;23.332;2022-11-20T07:38:14;94475.84;;;17.44;100.00
33155;BME280;19511;42.682;23.332;2022-11-20T07:40:40;94477.66;;;17.47;100.00
33155;BME280;19511;42.682;23.332;2022-11-20T07:43:05;94475.19;;;17.49;100.00
33155;BME280;19511;42.682;23.332;2022-11-20T07:45:31;94364.03;;;16.58;100.00
33155;BME280;19511;42.682;23.332;2022-11-20T07:48:05;94386.16;;;16.80;100.00
33155;BME280;19511;42.682;23.332;2022-11-20T07:50:30;94465.34;;;17.29;100.00
33155;BME280;19511;42.682;23.332;2022-11-20T07:53:05;94406.63;;;16.87;100.00
33155;BME280;19511;42.682;23.332;2022-11-20T07:55:31;94395.13;;;16.85;100.00
33155;BME280;19511;42.682;23.332;2022-11-20T07:57:57;94477.56;;;17.41;100.00
33155;BME280;19511;42.682;23.332;2022-11-20T08:00:24;94485.94;;;17.41;100.00
33155;BME280;19511;42.682;23.332;2022-11-20T08:02:49;94485.47;;;17.43;100.00
33155;BME280;19511;42.682;23.332;2022-11-20T08:05:16;94398.56;;;16.89;100.00
33155;BME280;19511;42.682;23.332;2022-11-20T08:07:43;94484.09;;;17.38;100.00
33155;BME280;19511;42.682;23.332;2022-11-20T08:10:14;94435.28;;;17.06;100.00
33155;BME280;19511;42.682;23.332;2022-11-20T08:12:48;94476.00;;;17.40;100.00
33155;BME280;19511;42.682;23.332;2022-11-20T08:15:33;94478.16;;;17.45;100.00
33155;BME280;19511;42.682;23.332;2022-11-20T08:18:00;94392.75;;;17.11;100.00
33155;BME280;19511;42.682;23.332;2022-11-20T08:20:26;94447.66;;;17.57;100.00
33155;BME280;19511;42.682;23.332;2022-11-20T08:22:51;94435.50;;;17.36;100.00
33155;BME280;19511;42.682;23.332;2022-11-20T08:25:17;94461.91;;;17.35;100.00
33155;BME280;19511;42.682;23.332;2022-11-20T08:27:46;94466.81;;;17.49;100.00
33155;BME280;19511;42.682;23.332;2022-11-20T08:30:11;94491.31;;;17.54;100.00
33155;BME280;19511;42.682;23.332;2022-11-20T08:32:37;94501.25;;;17.55;100.00
33155;BME280;19511;42.682;23.332;2022-11-20T08:35:03;94499.41;;;17.52;100.00
33155;BME280;19511;42.682;23.332;2022-11-20T08:37:28;94490.56;;;17.54;100.00
33155;BME280;19511;42.682;23.332;2022-11-20T08:39:53;94480.94;;;17.55;100.00
33155;BME280;19511;42.682;23.332;2022-11-20T08:42:22;94470.16;;;17.62;100.00
33155;BME280;19511;42.682;23.332;2022-11-20T08:44:47;94499.00;;;17.78;100.00
33155;BME280;19511;42.682;23.332;2022-11-20T08:47:13;94431.31;;;17.31;100.00
33155;BME280;19511;42.682;23.332;2022-11-20T08:49:38;94438.59;;;17.38;100.00
33155;BME280;19511;42.682;23.332;2022-11-20T08:52:03;94527.56;;;17.82;100.00
33155;BME280;19511;42.682;23.332;2022-11-20T08:54:29;94524.22;;;17.69;100.00
33155;BME280;19511;42.682;23.332;2022-11-20T08:56:54;94529.44;;;17.42;100.00
33155;BME280;19511;42.682;23.332;2022-11-20T08:59:20;94513.84;;;16.98;100.00
33155;BME280;19511;42.682;23.332;2022-11-20T09:01:45;94523.47;;;17.07;100.00
33155;BME280;19511;42.682;23.332;2022-11-20T09:04:10;94523.00;;;16.99;100.00
33155;BME280;19511;42.682;23.332;2022-11-20T09:06:39;94526.25;;;16.88;100.00
33155;BME280;19511;42.682;23.332;2022-11-20T09:09:07;94532.47;;;17.02;100.00
33155;BME280;19511;42.682;23.332;2022-11-20T09:11:34;94442.84;;;16.35;100.00
33155;BME280;19511;42.682;23.332;2022-11-20T09:14:00;94539.59;;;16.93;100.00
33155;BME280;19511;42.682;23.332;2022-11-20T09:16:27;94473.22;;;16.42;100.00
33155;BME280;19511;42.682;23.332;2022-11-20T09:18:53;94557.91;;;16.94;100.00
33155;BME280;19511;42.682;23.332;2022-11-20T09:21:18;94529.34;;;16.90;100.00
33155;BME280;19511;42.682;23.332;2022-11-20T09:23:44;94543.94;;;16.67;100.00
33155;BME280;19511;42.682;23.332;2022-11-20T09:26:14;94542.06;;;16.73;100.00
33155;BME280;19511;42.682;23.332;2022-11-20T09:28:40;94535.06;;;16.40;100.00
33155;BME280;19511;42.682;23.332;2022-11-20T09:31:13;94535.06;;;16.22;100.00
33155;BME280;19511;42.682;23.332;2022-11-20T09:33:42;94437.31;;;15.16;100.00
33155;BME280;19511;42.682;23.332;2022-11-20T09:36:08;94535.97;;;15.68;100.00
33155;BME280;19511;42.682;23.332;2022-11-20T09:38:33;94506.78;;;15.51;100.00
33155;BME280;19511;42.682;23.332;2022-11-20T09:52:00;94429.53;;;15.11;100.00
33155;BME280;19511;42.682;23.332;2022-11-20T09:54:36;94502.19;;;15.57;100.00
33155;BME280;19511;42.682;23.332;2022-11-20T09:59:39;94490.44;;;15.62;100.00
33155;BME280;19511;42.682;23.332;2022-11-20T10:02:29;94504.09;;;15.70;100.00
33155;BME280;19511;42.682;23.332;2022-11-20T10:05:10;94430.25;;;15.33;100.00
33155;BME280;19511;42.682;23.332;2022-11-20T10:07:42;94501.97;;;15.83;100.00
33155;BME280;19511;42.682;23.332;2022-11-20T10:10:29;94488.38;;;15.94;100.00
33155;BME280;19511;42.682;23.332;2022-11-20T10:13:20;94487.47;;;16.07;100.00
33155;BME280;19511;42.682;23.332;2022-11-20T10:29:36;94456.63;;;16.01;100.00
33155;BME280;19511;42.682;23.332;2022-11-20T10:32:24;94474.88;;;16.02;100.00
33155;BME280;19511;42.682;23.332;2022-11-20T10:35:02;94494.25;;;15.96;100.00
33155;BME280;19511;42.682;23.332;2022-11-20T10:37:31;94487.59;;;16.03;100.00
33155;BME280;19511;42.682;23.332;2022-11-20T10:42:44;94488.81;;;15.93;100.00
33155;BME280;19511;42.682;23.332;2022-11-20T10:47:50;94498.75;;;16.03;100.00
33155;BME280;19511;42.682;23.332;2022-11-20T10:50:19;94465.91;;;16.07;100.00
33155;BME280;19511;42.682;23.332;2022-11-20T10:53:43;94469.16;;;16.15;100.00
33155;BME280;19511;42.682;23.332;2022-11-20T10:56:02;94428.97;;;15.75;100.00
33155;BME280;19511;42.682;23.332;2022-11-20T11:01:05;94482.38;;;16.33;100.00
33155;BME280;19511;42.682;23.332;2022-11-20T11:03:31;94440.56;;;15.64;100.00
33155;BME280;19511;42.682;23.332;2022-11-20T11:08:35;94537.97;;;15.99;100.00
33155;BME280;19511;42.682;23.332;2022-11-20T11:11:24;94535.03;;;15.62;100.00
33155;BME280;19511;42.682;23.332;2022-11-20T11:13:51;94519.41;;;14.80;100.00
33155;BME280;19511;42.682;23.332;2022-11-20T11:16:25;94570.03;;;14.17;100.00
33155;BME280;19511;42.682;23.332;2022-11-20T11:19:12;94563.28;;;13.80;100.00
33155;BME280;19511;42.682;23.332;2022-11-20T11:21:38;94565.44;;;13.50;100.00
33155;BME280;19511;42.682;23.332;2022-11-20T11:24:19;94563.47;;;13.21;100.00
33155;BME280;19511;42.682;23.332;2022-11-20T11:27:02;94552.91;;;13.03;100.00
33155;BME280;19511;42.682;23.332;2022-11-20T11:29:30;94425.47;;;12.40;100.00
33155;BME280;19511;42.682;23.332;2022-11-20T11:32:10;94534.09;;;12.94;100.00
33155;BME280;19511;42.682;23.332;2022-11-20T11:34:36;94540.84;;;12.80;100.00
33155;BME280;19511;42.682;23.332;2022-11-20T11:37:02;94529.66;;;12.84;100.00
33155;BME280;19511;42.682;23.332;2022-11-20T11:39:32;94527.72;;;12.81;100.00
33155;BME280;19511;42.682;23.332;2022-11-20T11:42:00;94428.06;;;12.31;100.00
33155;BME280;19511;42.682;23.332;2022-11-20T11:44:33;94518.47;;;13.00;100.00
33155;BME280;19511;42.682;23.332;2022-11-20T11:47:24;94510.59;;;13.12;100.00
33155;BME280;19511;42.682;23.332;2022-11-20T11:57:51;94517.72;;;13.26;100.00
33155;BME280;19511;42.682;23.332;2022-11-20T12:00:20;94509.25;;;13.29;100.00
33155;BME280;19511;42.682;23.332;2022-11-20T12:05:21;94437.63;;;12.85;100.00
33155;BME280;19511;42.682;23.332;2022-11-20T12:10:49;94498.63;;;13.66;100.00
33155;BME280;19511;42.682;23.332;2022-11-20T12:13:55;94495.50;;;13.64;100.00
33155;BME280;19511;42.682;23.332;2022-11-20T12:16:21;94488.97;;;13.45;100.00
33155;BME280;19511;42.682;23.332;2022-11-20T12:18:49;94402.66;;;12.88;100.00
33155;BME280;19511;42.682;23.332;2022-11-20T12:37:21;94509.13;;;12.94;100.00
33155;BME280;19511;42.682;23.332;2022-11-20T12:39:50;94488.34;;;12.86;100.00
33155;BME280;19511;42.682;23.332;2022-11-20T12:59:46;94456.09;;;12.50;100.00
33155;BME280;19511;42.682;23.332;2022-11-20T13:05:18;94467.00;;;12.28;100.00
33155;BME280;19511;42.682;23.332;2022-11-20T13:07:45;94443.56;;;12.16;100.00
33155;BME280;19511;42.682;23.332;2022-11-20T13:10:21;94432.66;;;12.08;100.00
33155;BME280;19511;42.682;23.332;2022-11-20T13:18:44;94505.00;;;12.44;100.00
33155;BME280;19511;42.682;23.332;2022-11-20T13:21:18;94489.44;;;12.33;100.00
33155;BME280;19511;42.682;23.332;2022-11-20T13:23:44;94505.06;;;12.69;100.00
33155;BME280;19511;42.682;23.332;2022-11-20T13:26:20;94370.25;;;12.04;100.00
33155;BME280;19511;42.682;23.332;2022-11-20T13:28:59;94470.75;;;12.63;100.00
33155;BME280;19511;42.682;23.332;2022-11-20T13:31:32;94515.13;;;12.63;100.00
33155;BME280;19511;42.682;23.332;2022-11-20T13:33:59;94492.81;;;12.54;100.00
33155;BME280;19511;42.682;23.332;2022-11-20T13:36:27;94461.22;;;12.64;100.00
33155;BME280;19511;42.682;23.332;2022-11-20T13:38:55;94403.19;;;12.15;100.00
33155;BME280;19511;42.682;23.332;2022-11-20T13:41:35;94505.41;;;12.71;100.00
33155;BME280;19511;42.682;23.332;2022-11-20T13:44:14;94477.31;;;12.69;100.00
33155;BME280;19511;42.682;23.332;2022-11-20T13:46:45;94481.19;;;12.59;100.00
33155;BME280;19511;42.682;23.332;2022-11-20T13:49:29;94513.72;;;12.71;100.00
33155;BME280;19511;42.682;23.332;2022-11-20T14:00:15;94529.56;;;12.58;100.00
33155;BME280;19511;42.682;23.332;2022-11-20T14:02:41;94528.34;;;12.59;100.00
33155;BME280;19511;42.682;23.332;2022-11-20T14:05:20;94522.59;;;12.66;100.00
33155;BME280;19511;42.682;23.332;2022-11-20T14:07:47;94518.44;;;12.58;100.00
33155;BME280;19511;42.682;23.332;2022-11-20T14:10:24;94511.50;;;12.66;100.00
33155;BME280;19511;42.682;23.332;2022-11-20T14:12:50;94523.34;;;12.54;100.00
33155;BME280;19511;42.682;23.332;2022-11-20T14:15:30;94514.16;;;12.57;100.00
33155;BME280;19511;42.682;23.332;2022-11-20T14:17:57;94476.59;;;12.39;100.00
33155;BME280;19511;42.682;23.332;2022-11-20T14:20:25;94509.72;;;12.60;100.00
33155;BME280;19511;42.682;23.332;2022-11-20T14:22:53;94425.66;;;12.04;100.00
33155;BME280;19511;42.682;23.332;2022-11-20T14:25:20;94500.09;;;12.77;100.00
33155;BME280;19511;42.682;23.332;2022-11-20T14:27:56;94404.66;;;12.19;100.00
33155;BME280;19511;42.682;23.332;2022-11-20T14:30:36;94503.22;;;12.79;100.00
33155;BME280;19511;42.682;23.332;2022-11-20T14:33:03;94510.53;;;12.86;100.00
33155;BME280;19511;42.682;23.332;2022-11-20T14:35:33;94430.03;;;12.18;100.00
33155;BME280;19511;42.682;23.332;2022-11-20T14:38:01;94519.31;;;12.84;100.00